sensor_id;sensor_type;location;lat;lon;timestamp;P1;durP1;ratioP1;P2;durP2;ratioP2
47523;SDS011;33253;42.144;25.884;2023-06-22T00:00:57;13.60;;;9.80;;
47523;SDS011;33253;42.144;25.884;2023-06-22T00:03:25;10.70;;;9.30;;
47523;SDS011;33253;42.144;25.884;2023-06-22T00:05:51;12.25;;;10.68;;
47523;SDS011;33253;42.144;25.884;2023-06-22T00:08:17;11.40;;;9.85;;
47523;SDS011;33253;42.144;25.884;2023-06-22T00:10:44;10.68;;;8.85;;
47523;SDS011;33253;42.144;25.884;2023-06-22T00:13:10;14.40;;;9.88;;
47523;SDS011;33253;42.144;25.884;2023-06-22T00:15:37;12.25;;;10.10;;
47523;SDS011;33253;42.144;25.884;2023-06-22T00:18:04;11.70;;;10.18;;
47523;SDS011;33253;42.144;25.884;2023-06-22T00:20:30;14.85;;;11.40;;
47523;SDS011;33253;42.144;25.884;2023-06-22T00:22:56;11.45;;;10.25;;
47523;SDS011;33253;42.144;25.884;2023-06-22T00:25:23;12.88;;;10.68;;
47523;SDS011;33253;42.144;25.884;2023-06-22T00:27:49;12.40;;;10.90;;
47523;SDS011;33253;42.144;25.884;2023-06-22T00:30:15;13.88;;;10.25;;
47523;SDS011;33253;42.144;25.884;2023-06-22T00:32:42;12.02;;;10.65;;
47523;SDS011;33253;42.144;25.884;2023-06-22T00:35:08;11.02;;;9.93;;
47523;SDS011;33253;42.144;25.884;2023-06-22T00:37:35;14.02;;;10.90;;
47523;SDS011;33253;42.144;25.884;2023-06-22T00:40:01;12.45;;;11.05;;
47523;SDS011;33253;42.144;25.884;2023-06-22T00:42:27;11.85;;;10.65;;
47523;SDS011;33253;42.144;25.884;2023-06-22T00:44:53;14.55;;;11.30;;
47523;SDS011;33253;42.144;25.884;2023-06-22T00:47:18;11.15;;;9.95;;
47523;SDS011;33253;42.144;25.884;2023-06-22T00:49:44;13.20;;;9.50;;
47523;SDS011;33253;42.144;25.884;2023-06-22T00:52:11;15.18;;;10.52;;
47523;SDS011;33253;42.144;25.884;2023-06-22T00:54:40;11.32;;;10.13;;
47523;SDS011;33253;42.144;25.884;2023-06-22T00:57:13;11.48;;;10.20;;
47523;SDS011;33253;42.144;25.884;2023-06-22T00:59:42;11.52;;;10.25;;
47523;SDS011;33253;42.144;25.884;2023-06-22T01:02:08;11.88;;;9.80;;
47523;SDS011;33253;42.144;25.884;2023-06-22T01:04:34;13.07;;;9.93;;
47523;SDS011;33253;42.144;25.884;2023-06-22T01:12:36;13.82;;;11.10;;
47523;SDS011;33253;42.144;25.884;2023-06-22T01:15:26;12.85;;;10.43;;
47523;SDS011;33253;42.144;25.884;2023-06-22T01:17:56;11.95;;;9.80;;
47523;SDS011;33253;42.144;25.884;2023-06-22T01:20:23;12.93;;;10.48;;
47523;SDS011;33253;42.144;25.884;2023-06-22T01:25:53;13.20;;;10.68;;
47523;SDS011;33253;42.144;25.884;2023-06-22T01:28:53;16.75;;;10.38;;
47523;SDS011;33253;42.144;25.884;2023-06-22T01:31:20;12.70;;;10.38;;
47523;SDS011;33253;42.144;25.884;2023-06-22T01:33:50;12.43;;;10.15;;
47523;SDS011;33253;42.144;25.884;2023-06-22T01:36:20;14.75;;;10.50;;
47523;SDS011;33253;42.144;25.884;2023-06-22T01:38:47;12.00;;;10.60;;
47523;SDS011;33253;42.144;25.884;2023-06-22T01:41:13;11.00;;;9.88;;
47523;SDS011;33253;42.144;25.884;2023-06-22T01:43:39;11.93;;;10.30;;
47523;SDS011;33253;42.144;25.884;2023-06-22T01:46:05;11.48;;;10.27;;
47523;SDS011;33253;42.144;25.884;2023-06-22T01:48:31;11.75;;;10.55;;
47523;SDS011;33253;42.144;25.884;2023-06-22T01:50:57;12.23;;;10.10;;
47523;SDS011;33253;42.144;25.884;2023-06-22T01:53:23;11.90;;;10.55;;
47523;SDS011;33253;42.144;25.884;2023-06-22T01:55:49;12.02;;;10.40;;
47523;SDS011;33253;42.144;25.884;2023-06-22T01:58:15;11.68;;;10.48;;
47523;SDS011;33253;42.144;25.884;2023-06-22T02:00:44;14.13;;;10.43;;
47523;SDS011;33253;42.144;25.884;2023-06-22T02:03:22;12.48;;;10.65;;
47523;SDS011;33253;42.144;25.884;2023-06-22T02:08:49;12.05;;;10.23;;
47523;SDS011;33253;42.144;25.884;2023-06-22T02:11:19;11.13;;;10.00;;
47523;SDS011;33253;42.144;25.884;2023-06-22T02:13:46;13.00;;;10.30;;
47523;SDS011;33253;42.144;25.884;2023-06-22T02:16:13;13.23;;;9.70;;
47523;SDS011;33253;42.144;25.884;2023-06-22T02:18:50;13.57;;;9.82;;
47523;SDS011;33253;42.144;25.884;2023-06-22T02:21:17;14.10;;;10.65;;
47523;SDS011;33253;42.144;25.884;2023-06-22T02:23:46;13.50;;;10.68;;
47523;SDS011;33253;42.144;25.884;2023-06-22T02:26:12;17.50;;;10.13;;
47523;SDS011;33253;42.144;25.884;2023-06-22T02:28:38;14.23;;;10.70;;
47523;SDS011;33253;42.144;25.884;2023-06-22T02:31:03;14.60;;;10.15;;
47523;SDS011;33253;42.144;25.884;2023-06-22T02:33:29;12.27;;;9.88;;
47523;SDS011;33253;42.144;25.884;2023-06-22T02:35:54;14.35;;;9.73;;
47523;SDS011;33253;42.144;25.884;2023-06-22T02:38:20;14.73;;;10.63;;
47523;SDS011;33253;42.144;25.884;2023-06-22T02:40:45;13.40;;;10.90;;
47523;SDS011;33253;42.144;25.884;2023-06-22T02:43:12;13.45;;;10.85;;
47523;SDS011;33253;42.144;25.884;2023-06-22T02:45:38;14.55;;;10.32;;
47523;SDS011;33253;42.144;25.884;2023-06-22T02:48:03;14.60;;;10.95;;
47523;SDS011;33253;42.144;25.884;2023-06-22T02:50:29;15.60;;;11.82;;
47523;SDS011;33253;42.144;25.884;2023-06-22T02:52:55;15.25;;;11.35;;
47523;SDS011;33253;42.144;25.884;2023-06-22T02:55:20;13.40;;;11.85;;
47523;SDS011;33253;42.144;25.884;2023-06-22T02:57:46;15.57;;;11.63;;
47523;SDS011;33253;42.144;25.884;2023-06-22T03:00:13;13.35;;;10.52;;
47523;SDS011;33253;42.144;25.884;2023-06-22T03:02:46;14.38;;;10.90;;
47523;SDS011;33253;42.144;25.884;2023-06-22T03:05:13;15.48;;;11.32;;
47523;SDS011;33253;42.144;25.884;2023-06-22T03:07:40;13.30;;;10.65;;
47523;SDS011;33253;42.144;25.884;2023-06-22T03:10:06;14.73;;;11.57;;
47523;SDS011;33253;42.144;25.884;2023-06-22T03:12:34;12.00;;;10.77;;
47523;SDS011;33253;42.144;25.884;2023-06-22T03:14:59;15.45;;;10.90;;
47523;SDS011;33253;42.144;25.884;2023-06-22T03:17:25;14.23;;;10.75;;
47523;SDS011;33253;42.144;25.884;2023-06-22T03:19:50;11.88;;;10.13;;
47523;SDS011;33253;42.144;25.884;2023-06-22T03:22:16;12.27;;;10.25;;
47523;SDS011;33253;42.144;25.884;2023-06-22T03:24:41;13.88;;;10.93;;
47523;SDS011;33253;42.144;25.884;2023-06-22T03:27:06;15.70;;;11.52;;
47523;SDS011;33253;42.144;25.884;2023-06-22T03:29:32;15.25;;;12.25;;
47523;SDS011;33253;42.144;25.884;2023-06-22T03:31:57;14.65;;;11.75;;
47523;SDS011;33253;42.144;25.884;2023-06-22T03:34:23;16.33;;;11.32;;
47523;SDS011;33253;42.144;25.884;2023-06-22T03:36:48;12.95;;;11.45;;
47523;SDS011;33253;42.144;25.884;2023-06-22T03:39:13;13.65;;;11.85;;
47523;SDS011;33253;42.144;25.884;2023-06-22T03:41:39;15.93;;;11.70;;
47523;SDS011;33253;42.144;25.884;2023-06-22T03:44:04;12.98;;;11.57;;
47523;SDS011;33253;42.144;25.884;2023-06-22T03:46:30;15.98;;;11.35;;
47523;SDS011;33253;42.144;25.884;2023-06-22T03:48:55;14.35;;;11.52;;
47523;SDS011;33253;42.144;25.884;2023-06-22T03:51:20;14.18;;;12.27;;
47523;SDS011;33253;42.144;25.884;2023-06-22T03:53:46;12.77;;;11.43;;
47523;SDS011;33253;42.144;25.884;2023-06-22T03:56:13;16.15;;;13.23;;
47523;SDS011;33253;42.144;25.884;2023-06-22T03:58:45;21.52;;;15.13;;
47523;SDS011;33253;42.144;25.884;2023-06-22T04:01:10;17.27;;;14.57;;
47523;SDS011;33253;42.144;25.884;2023-06-22T04:03:36;19.98;;;15.15;;
47523;SDS011;33253;42.144;25.884;2023-06-22T04:06:02;20.10;;;15.35;;
47523;SDS011;33253;42.144;25.884;2023-06-22T04:08:28;16.40;;;14.57;;
47523;SDS011;33253;42.144;25.884;2023-06-22T04:10:53;17.52;;;15.38;;
47523;SDS011;33253;42.144;25.884;2023-06-22T04:13:19;19.65;;;15.55;;
47523;SDS011;33253;42.144;25.884;2023-06-22T04:15:44;18.00;;;15.43;;
47523;SDS011;33253;42.144;25.884;2023-06-22T04:18:10;19.15;;;16.35;;
47523;SDS011;33253;42.144;25.884;2023-06-22T04:20:35;20.92;;;16.83;;
47523;SDS011;33253;42.144;25.884;2023-06-22T04:23:01;20.67;;;17.70;;
47523;SDS011;33253;42.144;25.884;2023-06-22T04:25:26;20.42;;;18.33;;
47523;SDS011;33253;42.144;25.884;2023-06-22T04:27:52;22.27;;;18.77;;
47523;SDS011;33253;42.144;25.884;2023-06-22T04:30:18;19.58;;;17.42;;
47523;SDS011;33253;42.144;25.884;2023-06-22T04:32:43;22.67;;;17.10;;
47523;SDS011;33253;42.144;25.884;2023-06-22T04:35:10;17.73;;;15.85;;
47523;SDS011;33253;42.144;25.884;2023-06-22T04:37:36;18.48;;;16.48;;
47523;SDS011;33253;42.144;25.884;2023-06-22T04:40:01;19.35;;;15.98;;
47523;SDS011;33253;42.144;25.884;2023-06-22T04:42:28;19.02;;;16.38;;
47523;SDS011;33253;42.144;25.884;2023-06-22T04:44:55;20.58;;;16.40;;
47523;SDS011;33253;42.144;25.884;2023-06-22T04:47:20;18.63;;;16.00;;
47523;SDS011;33253;42.144;25.884;2023-06-22T04:49:46;18.10;;;15.88;;
47523;SDS011;33253;42.144;25.884;2023-06-22T04:52:12;18.65;;;16.38;;
47523;SDS011;33253;42.144;25.884;2023-06-22T04:54:39;22.50;;;16.15;;
47523;SDS011;33253;42.144;25.884;2023-06-22T04:57:13;17.75;;;15.55;;
47523;SDS011;33253;42.144;25.884;2023-06-22T04:59:40;18.77;;;16.77;;
47523;SDS011;33253;42.144;25.884;2023-06-22T05:02:07;21.35;;;17.45;;
47523;SDS011;33253;42.144;25.884;2023-06-22T05:04:33;22.10;;;17.25;;
47523;SDS011;33253;42.144;25.884;2023-06-22T05:07:00;24.30;;;18.88;;
47523;SDS011;33253;42.144;25.884;2023-06-22T05:09:27;22.10;;;17.85;;
47523;SDS011;33253;42.144;25.884;2023-06-22T05:11:53;22.90;;;17.98;;
47523;SDS011;33253;42.144;25.884;2023-06-22T05:14:19;21.67;;;16.73;;
47523;SDS011;33253;42.144;25.884;2023-06-22T05:16:44;19.13;;;17.13;;
47523;SDS011;33253;42.144;25.884;2023-06-22T05:19:11;19.05;;;17.05;;
47523;SDS011;33253;42.144;25.884;2023-06-22T05:21:37;22.58;;;18.92;;
47523;SDS011;33253;42.144;25.884;2023-06-22T05:24:03;19.83;;;17.83;;
47523;SDS011;33253;42.144;25.884;2023-06-22T05:26:29;24.20;;;18.95;;
47523;SDS011;33253;42.144;25.884;2023-06-22T05:28:55;22.17;;;19.27;;
47523;SDS011;33253;42.144;25.884;2023-06-22T05:31:22;23.50;;;17.65;;
47523;SDS011;33253;42.144;25.884;2023-06-22T05:33:48;19.13;;;17.13;;
47523;SDS011;33253;42.144;25.884;2023-06-22T05:36:15;19.25;;;17.33;;
47523;SDS011;33253;42.144;25.884;2023-06-22T05:38:40;19.10;;;17.17;;
47523;SDS011;33253;42.144;25.884;2023-06-22T05:41:06;17.02;;;15.32;;
47523;SDS011;33253;42.144;25.884;2023-06-22T05:43:33;20.70;;;16.50;;
47523;SDS011;33253;42.144;25.884;2023-06-22T05:45:59;22.73;;;15.82;;
47523;SDS011;33253;42.144;25.884;2023-06-22T05:48:25;15.15;;;12.98;;
47523;SDS011;33253;42.144;25.884;2023-06-22T05:50:51;15.30;;;12.52;;
47523;SDS011;33253;42.144;25.884;2023-06-22T05:53:16;13.60;;;12.07;;
47523;SDS011;33253;42.144;25.884;2023-06-22T05:55:42;14.95;;;12.82;;
47523;SDS011;33253;42.144;25.884;2023-06-22T05:58:08;15.20;;;12.80;;
47523;SDS011;33253;42.144;25.884;2023-06-22T06:00:34;16.85;;;13.45;;
47523;SDS011;33253;42.144;25.884;2023-06-22T06:03:00;15.13;;;12.20;;
47523;SDS011;33253;42.144;25.884;2023-06-22T06:05:29;16.57;;;13.80;;
47523;SDS011;33253;42.144;25.884;2023-06-22T06:07:55;13.40;;;11.30;;
47523;SDS011;33253;42.144;25.884;2023-06-22T06:10:20;13.63;;;11.63;;
47523;SDS011;33253;42.144;25.884;2023-06-22T06:12:46;14.20;;;12.25;;
47523;SDS011;33253;42.144;25.884;2023-06-22T06:15:11;12.90;;;11.45;;
47523;SDS011;33253;42.144;25.884;2023-06-22T06:17:44;15.95;;;11.68;;
47523;SDS011;33253;42.144;25.884;2023-06-22T06:20:11;13.68;;;12.27;;
47523;SDS011;33253;42.144;25.884;2023-06-22T06:22:37;14.20;;;11.73;;
47523;SDS011;33253;42.144;25.884;2023-06-22T06:25:02;12.55;;;11.07;;
47523;SDS011;33253;42.144;25.884;2023-06-22T06:27:28;14.27;;;12.25;;
47523;SDS011;33253;42.144;25.884;2023-06-22T06:29:54;14.40;;;12.90;;
47523;SDS011;33253;42.144;25.884;2023-06-22T06:32:19;16.20;;;13.65;;
47523;SDS011;33253;42.144;25.884;2023-06-22T06:34:45;14.77;;;13.20;;
47523;SDS011;33253;42.144;25.884;2023-06-22T06:37:10;15.13;;;13.02;;
47523;SDS011;33253;42.144;25.884;2023-06-22T06:39:35;13.95;;;12.55;;
47523;SDS011;33253;42.144;25.884;2023-06-22T06:42:01;13.88;;;12.05;;
47523;SDS011;33253;42.144;25.884;2023-06-22T06:44:27;15.07;;;12.73;;
47523;SDS011;33253;42.144;25.884;2023-06-22T06:46:52;14.45;;;12.82;;
47523;SDS011;33253;42.144;25.884;2023-06-22T06:49:19;12.93;;;11.55;;
47523;SDS011;33253;42.144;25.884;2023-06-22T06:51:44;13.18;;;11.65;;
47523;SDS011;33253;42.144;25.884;2023-06-22T06:54:10;12.40;;;11.10;;
47523;SDS011;33253;42.144;25.884;2023-06-22T06:56:35;13.43;;;12.00;;
47523;SDS011;33253;42.144;25.884;2023-06-22T06:59:01;12.82;;;11.32;;
47523;SDS011;33253;42.144;25.884;2023-06-22T07:01:26;16.20;;;11.88;;
47523;SDS011;33253;42.144;25.884;2023-06-22T07:03:52;12.75;;;11.45;;
47523;SDS011;33253;42.144;25.884;2023-06-22T07:06:18;13.93;;;11.82;;
47523;SDS011;33253;42.144;25.884;2023-06-22T07:08:44;13.43;;;12.10;;
47523;SDS011;33253;42.144;25.884;2023-06-22T07:11:09;13.18;;;11.43;;
47523;SDS011;33253;42.144;25.884;2023-06-22T07:13:34;12.63;;;11.32;;
47523;SDS011;33253;42.144;25.884;2023-06-22T07:16:00;18.27;;;11.25;;
47523;SDS011;33253;42.144;25.884;2023-06-22T07:18:25;14.27;;;11.50;;
47523;SDS011;33253;42.144;25.884;2023-06-22T07:20:51;13.10;;;11.68;;
47523;SDS011;33253;42.144;25.884;2023-06-22T07:23:17;12.40;;;10.95;;
47523;SDS011;33253;42.144;25.884;2023-06-22T07:25:42;11.93;;;10.63;;
47523;SDS011;33253;42.144;25.884;2023-06-22T07:28:08;12.80;;;11.50;;
47523;SDS011;33253;42.144;25.884;2023-06-22T07:30:34;14.70;;;11.15;;
47523;SDS011;33253;42.144;25.884;2023-06-22T07:32:59;11.63;;;10.43;;
47523;SDS011;33253;42.144;25.884;2023-06-22T07:37:57;15.57;;;11.10;;
47523;SDS011;33253;42.144;25.884;2023-06-22T07:40:22;12.05;;;10.70;;
47523;SDS011;33253;42.144;25.884;2023-06-22T07:42:48;12.55;;;11.25;;
47523;SDS011;33253;42.144;25.884;2023-06-22T07:45:13;12.80;;;11.35;;
47523;SDS011;33253;42.144;25.884;2023-06-22T07:47:39;12.77;;;10.85;;
47523;SDS011;33253;42.144;25.884;2023-06-22T07:50:05;13.70;;;10.75;;
47523;SDS011;33253;42.144;25.884;2023-06-22T07:52:31;13.30;;;10.93;;
47523;SDS011;33253;42.144;25.884;2023-06-22T07:54:56;13.15;;;11.45;;
47523;SDS011;33253;42.144;25.884;2023-06-22T07:57:22;12.68;;;11.02;;
47523;SDS011;33253;42.144;25.884;2023-06-22T07:59:47;12.73;;;11.43;;
47523;SDS011;33253;42.144;25.884;2023-06-22T08:02:13;12.38;;;11.10;;
47523;SDS011;33253;42.144;25.884;2023-06-22T08:04:38;13.88;;;11.05;;
47523;SDS011;33253;42.144;25.884;2023-06-22T08:07:05;12.75;;;11.45;;
47523;SDS011;33253;42.144;25.884;2023-06-22T08:09:31;12.60;;;11.30;;
47523;SDS011;33253;42.144;25.884;2023-06-22T08:11:57;12.23;;;10.93;;
47523;SDS011;33253;42.144;25.884;2023-06-22T08:14:24;12.40;;;10.48;;
47523;SDS011;33253;42.144;25.884;2023-06-22T08:16:50;13.68;;;11.10;;
47523;SDS011;33253;42.144;25.884;2023-06-22T08:19:16;14.75;;;11.07;;
47523;SDS011;33253;42.144;25.884;2023-06-22T08:21:42;16.02;;;11.95;;
47523;SDS011;33253;42.144;25.884;2023-06-22T08:24:07;16.42;;;11.77;;
47523;SDS011;33253;42.144;25.884;2023-06-22T08:26:33;16.25;;;12.30;;
47523;SDS011;33253;42.144;25.884;2023-06-22T08:29:02;15.63;;;11.60;;
47523;SDS011;33253;42.144;25.884;2023-06-22T08:31:28;17.42;;;11.95;;
47523;SDS011;33253;42.144;25.884;2023-06-22T08:33:53;12.15;;;10.70;;
47523;SDS011;33253;42.144;25.884;2023-06-22T08:36:18;15.10;;;11.75;;
47523;SDS011;33253;42.144;25.884;2023-06-22T08:39:04;16.60;;;12.27;;
47523;SDS011;33253;42.144;25.884;2023-06-22T08:41:30;18.13;;;12.02;;
47523;SDS011;33253;42.144;25.884;2023-06-22T08:43:56;21.35;;;12.18;;
47523;SDS011;33253;42.144;25.884;2023-06-22T08:46:22;25.13;;;12.40;;
47523;SDS011;33253;42.144;25.884;2023-06-22T08:48:55;19.52;;;11.88;;
47523;SDS011;33253;42.144;25.884;2023-06-22T08:51:24;17.95;;;11.00;;
47523;SDS011;33253;42.144;25.884;2023-06-22T08:53:49;24.75;;;11.98;;
47523;SDS011;33253;42.144;25.884;2023-06-22T08:56:15;19.80;;;11.55;;
47523;SDS011;33253;42.144;25.884;2023-06-22T08:58:40;21.13;;;12.52;;
47523;SDS011;33253;42.144;25.884;2023-06-22T09:01:06;14.82;;;11.43;;
47523;SDS011;33253;42.144;25.884;2023-06-22T09:03:31;18.48;;;12.25;;
47523;SDS011;33253;42.144;25.884;2023-06-22T09:05:57;20.27;;;11.43;;
47523;SDS011;33253;42.144;25.884;2023-06-22T09:08:23;17.65;;;12.15;;
47523;SDS011;33253;42.144;25.884;2023-06-22T09:10:49;21.05;;;11.23;;
47523;SDS011;33253;42.144;25.884;2023-06-22T09:13:14;14.85;;;11.07;;
47523;SDS011;33253;42.144;25.884;2023-06-22T09:15:40;15.13;;;10.90;;
47523;SDS011;33253;42.144;25.884;2023-06-22T09:18:06;14.57;;;10.75;;
47523;SDS011;33253;42.144;25.884;2023-06-22T09:20:31;14.20;;;10.27;;
47523;SDS011;33253;42.144;25.884;2023-06-22T09:22:56;14.93;;;10.18;;
47523;SDS011;33253;42.144;25.884;2023-06-22T09:25:23;14.05;;;9.27;;
47523;SDS011;33253;42.144;25.884;2023-06-22T09:27:48;11.88;;;9.00;;
47523;SDS011;33253;42.144;25.884;2023-06-22T09:30:13;12.43;;;9.20;;
47523;SDS011;33253;42.144;25.884;2023-06-22T09:32:39;13.07;;;9.70;;
47523;SDS011;33253;42.144;25.884;2023-06-22T09:35:05;13.63;;;9.18;;
47523;SDS011;33253;42.144;25.884;2023-06-22T09:37:31;10.77;;;8.75;;
47523;SDS011;33253;42.144;25.884;2023-06-22T09:39:57;13.07;;;9.13;;
47523;SDS011;33253;42.144;25.884;2023-06-22T09:42:22;10.48;;;8.18;;
47523;SDS011;33253;42.144;25.884;2023-06-22T09:44:47;13.63;;;9.07;;
47523;SDS011;33253;42.144;25.884;2023-06-22T09:47:13;13.40;;;8.05;;
47523;SDS011;33253;42.144;25.884;2023-06-22T09:49:38;12.52;;;7.45;;
47523;SDS011;33253;42.144;25.884;2023-06-22T09:52:04;14.02;;;7.45;;
47523;SDS011;33253;42.144;25.884;2023-06-22T09:54:30;11.15;;;6.32;;
47523;SDS011;33253;42.144;25.884;2023-06-22T09:56:56;10.55;;;6.68;;
47523;SDS011;33253;42.144;25.884;2023-06-22T09:59:21;8.13;;;6.30;;
47523;SDS011;33253;42.144;25.884;2023-06-22T10:01:47;8.80;;;5.95;;
47523;SDS011;33253;42.144;25.884;2023-06-22T10:04:12;11.13;;;5.68;;
47523;SDS011;33253;42.144;25.884;2023-06-22T10:06:37;10.82;;;6.13;;
47523;SDS011;33253;42.144;25.884;2023-06-22T10:09:05;9.38;;;6.63;;
47523;SDS011;33253;42.144;25.884;2023-06-22T10:11:32;8.02;;;5.50;;
47523;SDS011;33253;42.144;25.884;2023-06-22T10:14:00;8.40;;;6.32;;
47523;SDS011;33253;42.144;25.884;2023-06-22T10:16:30;11.13;;;6.60;;
47523;SDS011;33253;42.144;25.884;2023-06-22T10:18:56;9.95;;;6.78;;
47523;SDS011;33253;42.144;25.884;2023-06-22T10:21:22;11.93;;;7.25;;
47523;SDS011;33253;42.144;25.884;2023-06-22T10:23:47;10.30;;;6.45;;
47523;SDS011;33253;42.144;25.884;2023-06-22T10:26:12;8.77;;;6.55;;
47523;SDS011;33253;42.144;25.884;2023-06-22T10:28:38;10.63;;;6.90;;
47523;SDS011;33253;42.144;25.884;2023-06-22T10:31:03;11.00;;;6.97;;
47523;SDS011;33253;42.144;25.884;2023-06-22T10:33:29;14.52;;;6.90;;
47523;SDS011;33253;42.144;25.884;2023-06-22T10:35:54;7.40;;;6.63;;
47523;SDS011;33253;42.144;25.884;2023-06-22T10:38:20;11.32;;;7.00;;
47523;SDS011;33253;42.144;25.884;2023-06-22T10:40:46;8.23;;;6.78;;
47523;SDS011;33253;42.144;25.884;2023-06-22T10:43:11;7.50;;;6.10;;
47523;SDS011;33253;42.144;25.884;2023-06-22T10:45:37;9.23;;;5.70;;
47523;SDS011;33253;42.144;25.884;2023-06-22T10:48:02;12.95;;;6.18;;
47523;SDS011;33253;42.144;25.884;2023-06-22T10:50:28;8.82;;;6.07;;
47523;SDS011;33253;42.144;25.884;2023-06-22T10:52:54;10.20;;;6.72;;
47523;SDS011;33253;42.144;25.884;2023-06-22T10:55:19;12.68;;;7.03;;
47523;SDS011;33253;42.144;25.884;2023-06-22T10:57:45;11.02;;;6.93;;
47523;SDS011;33253;42.144;25.884;2023-06-22T11:00:12;12.68;;;6.78;;
47523;SDS011;33253;42.144;25.884;2023-06-22T11:02:38;11.80;;;7.18;;
47523;SDS011;33253;42.144;25.884;2023-06-22T11:05:04;17.73;;;7.65;;
47523;SDS011;33253;42.144;25.884;2023-06-22T11:07:30;9.00;;;7.10;;
47523;SDS011;33253;42.144;25.884;2023-06-22T11:09:56;10.40;;;7.28;;
47523;SDS011;33253;42.144;25.884;2023-06-22T11:12:21;12.25;;;6.85;;
47523;SDS011;33253;42.144;25.884;2023-06-22T11:14:47;11.85;;;7.40;;
47523;SDS011;33253;42.144;25.884;2023-06-22T11:17:12;7.95;;;6.65;;
47523;SDS011;33253;42.144;25.884;2023-06-22T11:19:38;8.00;;;6.13;;
47523;SDS011;33253;42.144;25.884;2023-06-22T11:22:03;6.90;;;5.70;;
47523;SDS011;33253;42.144;25.884;2023-06-22T11:24:32;8.30;;;6.53;;
47523;SDS011;33253;42.144;25.884;2023-06-22T11:26:57;6.73;;;5.83;;
47523;SDS011;33253;42.144;25.884;2023-06-22T11:29:23;7.80;;;6.13;;
47523;SDS011;33253;42.144;25.884;2023-06-22T11:31:48;7.43;;;6.05;;
47523;SDS011;33253;42.144;25.884;2023-06-22T11:34:14;7.18;;;6.47;;
47523;SDS011;33253;42.144;25.884;2023-06-22T11:36:39;9.80;;;7.05;;
47523;SDS011;33253;42.144;25.884;2023-06-22T11:39:05;8.30;;;6.53;;
47523;SDS011;33253;42.144;25.884;2023-06-22T11:41:30;9.68;;;6.97;;
47523;SDS011;33253;42.144;25.884;2023-06-22T11:43:56;7.05;;;5.80;;
47523;SDS011;33253;42.144;25.884;2023-06-22T11:46:21;8.75;;;5.90;;
47523;SDS011;33253;42.144;25.884;2023-06-22T11:48:47;8.57;;;6.13;;
47523;SDS011;33253;42.144;25.884;2023-06-22T11:51:12;12.85;;;6.88;;
47523;SDS011;33253;42.144;25.884;2023-06-22T11:53:38;7.25;;;6.55;;
47523;SDS011;33253;42.144;25.884;2023-06-22T11:56:03;7.07;;;6.10;;
47523;SDS011;33253;42.144;25.884;2023-06-22T11:58:29;7.93;;;6.00;;
47523;SDS011;33253;42.144;25.884;2023-06-22T12:00:54;7.75;;;6.60;;
47523;SDS011;33253;42.144;25.884;2023-06-22T12:03:20;8.38;;;6.38;;
47523;SDS011;33253;42.144;25.884;2023-06-22T12:05:49;8.50;;;5.82;;
47523;SDS011;33253;42.144;25.884;2023-06-22T12:08:16;9.80;;;6.07;;
47523;SDS011;33253;42.144;25.884;2023-06-22T12:10:41;8.82;;;6.45;;
47523;SDS011;33253;42.144;25.884;2023-06-22T12:13:07;9.35;;;6.30;;
47523;SDS011;33253;42.144;25.884;2023-06-22T12:15:52;7.00;;;6.30;;
47523;SDS011;33253;42.144;25.884;2023-06-22T12:18:18;9.63;;;6.55;;
47523;SDS011;33253;42.144;25.884;2023-06-22T12:20:45;9.10;;;6.75;;
47523;SDS011;33253;42.144;25.884;2023-06-22T12:23:11;8.63;;;6.20;;
47523;SDS011;33253;42.144;25.884;2023-06-22T12:25:36;8.95;;;5.85;;
47523;SDS011;33253;42.144;25.884;2023-06-22T12:28:02;8.05;;;6.03;;
47523;SDS011;33253;42.144;25.884;2023-06-22T12:30:29;8.65;;;6.22;;
47523;SDS011;33253;42.144;25.884;2023-06-22T12:32:54;8.15;;;5.88;;
47523;SDS011;33253;42.144;25.884;2023-06-22T12:35:20;7.53;;;5.90;;
47523;SDS011;33253;42.144;25.884;2023-06-22T12:37:45;11.15;;;6.25;;
47523;SDS011;33253;42.144;25.884;2023-06-22T12:40:11;9.32;;;6.03;;
47523;SDS011;33253;42.144;25.884;2023-06-22T12:42:37;6.50;;;5.88;;
47523;SDS011;33253;42.144;25.884;2023-06-22T12:45:02;7.63;;;5.80;;
47523;SDS011;33253;42.144;25.884;2023-06-22T12:47:28;8.18;;;5.85;;
47523;SDS011;33253;42.144;25.884;2023-06-22T12:49:53;7.47;;;6.75;;
47523;SDS011;33253;42.144;25.884;2023-06-22T12:52:19;6.80;;;5.93;;
47523;SDS011;33253;42.144;25.884;2023-06-22T12:54:44;6.50;;;5.82;;
47523;SDS011;33253;42.144;25.884;2023-06-22T12:57:10;7.10;;;5.82;;
47523;SDS011;33253;42.144;25.884;2023-06-22T12:59:35;9.68;;;6.28;;
47523;SDS011;33253;42.144;25.884;2023-06-22T13:02:00;8.95;;;6.13;;
47523;SDS011;33253;42.144;25.884;2023-06-22T13:04:26;8.05;;;6.03;;
47523;SDS011;33253;42.144;25.884;2023-06-22T13:06:51;7.43;;;6.40;;
47523;SDS011;33253;42.144;25.884;2023-06-22T13:09:17;7.95;;;6.22;;
47523;SDS011;33253;42.144;25.884;2023-06-22T13:11:44;6.38;;;5.78;;
47523;SDS011;33253;42.144;25.884;2023-06-22T13:14:09;7.05;;;6.18;;
47523;SDS011;33253;42.144;25.884;2023-06-22T13:16:35;8.68;;;6.40;;
47523;SDS011;33253;42.144;25.884;2023-06-22T13:19:00;7.78;;;6.55;;
47523;SDS011;33253;42.144;25.884;2023-06-22T13:21:26;9.60;;;6.53;;
47523;SDS011;33253;42.144;25.884;2023-06-22T13:23:52;9.23;;;6.20;;
47523;SDS011;33253;42.144;25.884;2023-06-22T13:26:17;8.70;;;6.15;;
47523;SDS011;33253;42.144;25.884;2023-06-22T13:28:43;7.22;;;6.50;;
47523;SDS011;33253;42.144;25.884;2023-06-22T13:31:09;9.05;;;6.00;;
47523;SDS011;33253;42.144;25.884;2023-06-22T13:33:34;7.72;;;6.90;;
47523;SDS011;33253;42.144;25.884;2023-06-22T13:36:00;8.63;;;6.72;;
47523;SDS011;33253;42.144;25.884;2023-06-22T13:38:26;7.32;;;6.20;;
47523;SDS011;33253;42.144;25.884;2023-06-22T13:40:52;10.63;;;6.15;;
47523;SDS011;33253;42.144;25.884;2023-06-22T13:43:17;9.68;;;6.45;;
47523;SDS011;33253;42.144;25.884;2023-06-22T13:45:42;9.23;;;6.30;;
47523;SDS011;33253;42.144;25.884;2023-06-22T13:48:08;6.95;;;5.85;;
47523;SDS011;33253;42.144;25.884;2023-06-22T13:50:34;12.95;;;6.28;;
47523;SDS011;33253;42.144;25.884;2023-06-22T13:53:00;10.90;;;6.53;;
47523;SDS011;33253;42.144;25.884;2023-06-22T13:55:25;15.48;;;6.75;;
47523;SDS011;33253;42.144;25.884;2023-06-22T13:57:51;8.27;;;6.28;;
47523;SDS011;33253;42.144;25.884;2023-06-22T14:00:17;14.13;;;7.47;;
47523;SDS011;33253;42.144;25.884;2023-06-22T14:02:43;11.65;;;6.63;;
47523;SDS011;33253;42.144;25.884;2023-06-22T14:05:09;15.55;;;7.10;;
47523;SDS011;33253;42.144;25.884;2023-06-22T14:07:35;22.48;;;7.55;;
47523;SDS011;33253;42.144;25.884;2023-06-22T14:10:02;11.88;;;6.85;;
47523;SDS011;33253;42.144;25.884;2023-06-22T14:12:28;16.98;;;7.53;;
47523;SDS011;33253;42.144;25.884;2023-06-22T14:14:53;14.13;;;7.38;;
47523;SDS011;33253;42.144;25.884;2023-06-22T14:17:19;8.30;;;6.25;;
47523;SDS011;33253;42.144;25.884;2023-06-22T14:19:49;9.40;;;6.35;;
47523;SDS011;33253;42.144;25.884;2023-06-22T14:22:15;7.20;;;6.25;;
47523;SDS011;33253;42.144;25.884;2023-06-22T14:24:40;8.73;;;6.05;;